sensor_id;sensor_type;location;lat;lon;timestamp;P1;durP1;ratioP1;P2;durP2;ratioP2
8458;SDS011;4266;48.816;9.154;2023-11-19T00:01:51;4.20;;;3.43;;
8458;SDS011;4266;48.816;9.154;2023-11-19T00:04:16;4.87;;;3.00;;
8458;SDS011;4266;48.816;9.154;2023-11-19T00:06:42;4.37;;;3.97;;
8458;SDS011;4266;48.816;9.154;2023-11-19T00:09:08;3.30;;;3.00;;
8458;SDS011;4266;48.816;9.154;2023-11-19T00:11:34;3.10;;;2.90;;
8458;SDS011;4266;48.816;9.154;2023-11-19T00:14:00;4.23;;;2.63;;
8458;SDS011;4266;48.816;9.154;2023-11-19T00:16:25;4.17;;;2.63;;
8458;SDS011;4266;48.816;9.154;2023-11-19T00:18:51;3.70;;;2.83;;
8458;SDS011;4266;48.816;9.154;2023-11-19T00:21:17;3.50;;;2.70;;
8458;SDS011;4266;48.816;9.154;2023-11-19T00:23:43;4.07;;;2.37;;
8458;SDS011;4266;48.816;9.154;2023-11-19T00:26:08;2.50;;;2.30;;
8458;SDS011;4266;48.816;9.154;2023-11-19T00:28:35;2.80;;;2.47;;
8458;SDS011;4266;48.816;9.154;2023-11-19T00:31:01;2.77;;;2.57;;
8458;SDS011;4266;48.816;9.154;2023-11-19T00:33:26;2.70;;;2.17;;
8458;SDS011;4266;48.816;9.154;2023-11-19T00:35:52;2.10;;;2.00;;
8458;SDS011;4266;48.816;9.154;2023-11-19T00:38:18;2.57;;;2.40;;
8458;SDS011;4266;48.816;9.154;2023-11-19T00:40:43;3.00;;;2.40;;
8458;SDS011;4266;48.816;9.154;2023-11-19T00:43:09;2.60;;;2.40;;
8458;SDS011;4266;48.816;9.154;2023-11-19T00:45:36;2.20;;;2.10;;
8458;SDS011;4266;48.816;9.154;2023-11-19T00:48:01;1.93;;;1.83;;
8458;SDS011;4266;48.816;9.154;2023-11-19T00:50:27;2.93;;;1.90;;
8458;SDS011;4266;48.816;9.154;2023-11-19T00:52:53;1.90;;;1.80;;
8458;SDS011;4266;48.816;9.154;2023-11-19T00:55:18;2.10;;;2.00;;
8458;SDS011;4266;48.816;9.154;2023-11-19T00:57:44;2.10;;;1.57;;
8458;SDS011;4266;48.816;9.154;2023-11-19T01:00:10;1.77;;;1.67;;
8458;SDS011;4266;48.816;9.154;2023-11-19T01:02:40;1.80;;;1.70;;
8458;SDS011;4266;48.816;9.154;2023-11-19T01:05:07;2.07;;;1.80;;
8458;SDS011;4266;48.816;9.154;2023-11-19T01:07:32;1.90;;;1.80;;
8458;SDS011;4266;48.816;9.154;2023-11-19T01:09:58;2.63;;;1.90;;
8458;SDS011;4266;48.816;9.154;2023-11-19T01:12:25;1.93;;;1.83;;
8458;SDS011;4266;48.816;9.154;2023-11-19T01:14:50;1.73;;;1.63;;
8458;SDS011;4266;48.816;9.154;2023-11-19T01:17:16;2.70;;;2.10;;
8458;SDS011;4266;48.816;9.154;2023-11-19T01:19:42;2.07;;;1.80;;
8458;SDS011;4266;48.816;9.154;2023-11-19T01:22:08;1.83;;;1.70;;
8458;SDS011;4266;48.816;9.154;2023-11-19T01:24:33;1.80;;;1.70;;
8458;SDS011;4266;48.816;9.154;2023-11-19T01:26:59;2.00;;;1.80;;
8458;SDS011;4266;48.816;9.154;2023-11-19T01:29:25;1.67;;;1.50;;
8458;SDS011;4266;48.816;9.154;2023-11-19T01:31:51;1.80;;;1.70;;
8458;SDS011;4266;48.816;9.154;2023-11-19T01:34:17;1.50;;;1.40;;
8458;SDS011;4266;48.816;9.154;2023-11-19T01:36:43;1.50;;;1.40;;
8458;SDS011;4266;48.816;9.154;2023-11-19T01:39:09;1.07;;;1.07;;
8458;SDS011;4266;48.816;9.154;2023-11-19T01:41:36;1.57;;;1.47;;
8458;SDS011;4266;48.816;9.154;2023-11-19T01:44:01;2.07;;;1.50;;
8458;SDS011;4266;48.816;9.154;2023-11-19T01:46:28;1.20;;;1.20;;
8458;SDS011;4266;48.816;9.154;2023-11-19T01:48:54;1.10;;;1.10;;
8458;SDS011;4266;48.816;9.154;2023-11-19T01:51:19;1.10;;;1.10;;
8458;SDS011;4266;48.816;9.154;2023-11-19T01:53:46;1.10;;;1.10;;
8458;SDS011;4266;48.816;9.154;2023-11-19T01:56:13;2.00;;;1.10;;
8458;SDS011;4266;48.816;9.154;2023-11-19T01:58:38;2.10;;;1.00;;
8458;SDS011;4266;48.816;9.154;2023-11-19T02:01:05;1.07;;;1.07;;
8458;SDS011;4266;48.816;9.154;2023-11-19T02:03:31;2.73;;;1.10;;
8458;SDS011;4266;48.816;9.154;2023-11-19T02:05:57;1.10;;;1.10;;
8458;SDS011;4266;48.816;9.154;2023-11-19T02:08:24;1.00;;;1.00;;
8458;SDS011;4266;48.816;9.154;2023-11-19T02:10:50;1.00;;;1.00;;
8458;SDS011;4266;48.816;9.154;2023-11-19T02:13:17;1.10;;;1.10;;
8458;SDS011;4266;48.816;9.154;2023-11-19T02:15:43;1.90;;;1.20;;
8458;SDS011;4266;48.816;9.154;2023-11-19T02:20:43;1.00;;;1.00;;
8458;SDS011;4266;48.816;9.154;2023-11-19T02:23:08;1.10;;;1.10;;
8458;SDS011;4266;48.816;9.154;2023-11-19T02:25:34;0.90;;;0.90;;
8458;SDS011;4266;48.816;9.154;2023-11-19T02:28:00;1.07;;;1.07;;
8458;SDS011;4266;48.816;9.154;2023-11-19T02:30:26;1.53;;;1.20;;
8458;SDS011;4266;48.816;9.154;2023-11-19T02:32:52;1.00;;;1.00;;
8458;SDS011;4266;48.816;9.154;2023-11-19T02:35:18;1.17;;;1.00;;
8458;SDS011;4266;48.816;9.154;2023-11-19T02:37:43;1.20;;;1.10;;
8458;SDS011;4266;48.816;9.154;2023-11-19T02:40:09;1.00;;;1.00;;
8458;SDS011;4266;48.816;9.154;2023-11-19T02:42:35;4.03;;;1.23;;
8458;SDS011;4266;48.816;9.154;2023-11-19T02:45:01;1.10;;;1.00;;
8458;SDS011;4266;48.816;9.154;2023-11-19T02:47:26;1.03;;;1.03;;
8458;SDS011;4266;48.816;9.154;2023-11-19T02:49:53;0.90;;;0.90;;
8458;SDS011;4266;48.816;9.154;2023-11-19T02:52:19;0.97;;;0.97;;
8458;SDS011;4266;48.816;9.154;2023-11-19T02:54:46;1.00;;;1.00;;
8458;SDS011;4266;48.816;9.154;2023-11-19T02:57:12;1.10;;;1.10;;
8458;SDS011;4266;48.816;9.154;2023-11-19T02:59:38;0.90;;;0.90;;
8458;SDS011;4266;48.816;9.154;2023-11-19T03:02:03;1.10;;;1.10;;
8458;SDS011;4266;48.816;9.154;2023-11-19T03:04:29;1.63;;;1.10;;
8458;SDS011;4266;48.816;9.154;2023-11-19T03:06:55;1.27;;;1.10;;
8458;SDS011;4266;48.816;9.154;2023-11-19T03:09:22;1.20;;;1.20;;
8458;SDS011;4266;48.816;9.154;2023-11-19T03:11:47;1.87;;;1.20;;
8458;SDS011;4266;48.816;9.154;2023-11-19T03:14:13;1.10;;;1.00;;
8458;SDS011;4266;48.816;9.154;2023-11-19T03:16:39;1.30;;;1.20;;
8458;SDS011;4266;48.816;9.154;2023-11-19T03:19:06;1.10;;;1.10;;
8458;SDS011;4266;48.816;9.154;2023-11-19T03:21:32;0.90;;;0.90;;
8458;SDS011;4266;48.816;9.154;2023-11-19T03:23:59;3.30;;;1.17;;
8458;SDS011;4266;48.816;9.154;2023-11-19T03:26:26;0.93;;;0.93;;
8458;SDS011;4266;48.816;9.154;2023-11-19T03:28:52;1.07;;;1.07;;
8458;SDS011;4266;48.816;9.154;2023-11-19T03:31:18;1.00;;;1.00;;
8458;SDS011;4266;48.816;9.154;2023-11-19T03:33:44;1.17;;;1.17;;
8458;SDS011;4266;48.816;9.154;2023-11-19T03:36:11;1.00;;;1.00;;
8458;SDS011;4266;48.816;9.154;2023-11-19T03:38:37;1.10;;;1.00;;
8458;SDS011;4266;48.816;9.154;2023-11-19T03:41:10;1.00;;;1.00;;
8458;SDS011;4266;48.816;9.154;2023-11-19T03:43:34;1.30;;;1.20;;
8458;SDS011;4266;48.816;9.154;2023-11-19T03:46:00;1.00;;;1.00;;
8458;SDS011;4266;48.816;9.154;2023-11-19T03:48:26;1.13;;;1.00;;
8458;SDS011;4266;48.816;9.154;2023-11-19T03:50:51;3.90;;;1.20;;
8458;SDS011;4266;48.816;9.154;2023-11-19T03:53:17;0.90;;;0.90;;
8458;SDS011;4266;48.816;9.154;2023-11-19T03:55:43;1.27;;;1.00;;
8458;SDS011;4266;48.816;9.154;2023-11-19T03:58:09;0.90;;;0.90;;
8458;SDS011;4266;48.816;9.154;2023-11-19T04:00:36;1.67;;;1.00;;
8458;SDS011;4266;48.816;9.154;2023-11-19T04:03:01;0.90;;;0.90;;
8458;SDS011;4266;48.816;9.154;2023-11-19T04:05:27;0.90;;;0.90;;
8458;SDS011;4266;48.816;9.154;2023-11-19T04:07:53;1.10;;;1.10;;
8458;SDS011;4266;48.816;9.154;2023-11-19T04:10:19;0.90;;;0.90;;
8458;SDS011;4266;48.816;9.154;2023-11-19T04:12:45;1.10;;;1.10;;
8458;SDS011;4266;48.816;9.154;2023-11-19T04:15:12;1.10;;;1.10;;
8458;SDS011;4266;48.816;9.154;2023-11-19T04:17:37;0.90;;;0.90;;
8458;SDS011;4266;48.816;9.154;2023-11-19T04:20:03;1.63;;;0.90;;
8458;SDS011;4266;48.816;9.154;2023-11-19T04:22:30;0.90;;;0.90;;
8458;SDS011;4266;48.816;9.154;2023-11-19T04:24:56;1.20;;;1.10;;
8458;SDS011;4266;48.816;9.154;2023-11-19T04:27:21;1.60;;;1.50;;
8458;SDS011;4266;48.816;9.154;2023-11-19T04:29:48;1.43;;;1.20;;
8458;SDS011;4266;48.816;9.154;2023-11-19T04:32:14;1.03;;;0.90;;
8458;SDS011;4266;48.816;9.154;2023-11-19T04:34:40;0.80;;;0.80;;
8458;SDS011;4266;48.816;9.154;2023-11-19T04:37:06;0.97;;;0.97;;
8458;SDS011;4266;48.816;9.154;2023-11-19T04:39:32;1.00;;;1.00;;
8458;SDS011;4266;48.816;9.154;2023-11-19T04:41:58;1.00;;;0.90;;
8458;SDS011;4266;48.816;9.154;2023-11-19T04:44:25;1.13;;;1.03;;
8458;SDS011;4266;48.816;9.154;2023-11-19T04:46:51;1.00;;;0.90;;
8458;SDS011;4266;48.816;9.154;2023-11-19T04:49:17;0.90;;;0.90;;
8458;SDS011;4266;48.816;9.154;2023-11-19T04:51:43;0.90;;;0.90;;
8458;SDS011;4266;48.816;9.154;2023-11-19T04:54:09;0.90;;;0.90;;
8458;SDS011;4266;48.816;9.154;2023-11-19T04:56:36;0.90;;;0.90;;
8458;SDS011;4266;48.816;9.154;2023-11-19T04:59:03;0.80;;;0.80;;
8458;SDS011;4266;48.816;9.154;2023-11-19T05:01:29;1.63;;;0.90;;
8458;SDS011;4266;48.816;9.154;2023-11-19T05:03:56;0.90;;;0.90;;
8458;SDS011;4266;48.816;9.154;2023-11-19T05:06:20;0.80;;;0.80;;
8458;SDS011;4266;48.816;9.154;2023-11-19T05:08:46;0.83;;;0.83;;
8458;SDS011;4266;48.816;9.154;2023-11-19T05:11:13;1.80;;;0.90;;
8458;SDS011;4266;48.816;9.154;2023-11-19T05:13:38;0.90;;;0.90;;
8458;SDS011;4266;48.816;9.154;2023-11-19T05:16:04;0.90;;;0.80;;
8458;SDS011;4266;48.816;9.154;2023-11-19T05:18:31;1.00;;;1.00;;
8458;SDS011;4266;48.816;9.154;2023-11-19T05:20:57;0.80;;;0.80;;
8458;SDS011;4266;48.816;9.154;2023-11-19T05:23:22;0.93;;;0.93;;
8458;SDS011;4266;48.816;9.154;2023-11-19T05:25:48;0.97;;;0.90;;
8458;SDS011;4266;48.816;9.154;2023-11-19T05:28:14;1.00;;;1.00;;
8458;SDS011;4266;48.816;9.154;2023-11-19T05:30:40;0.80;;;0.80;;
8458;SDS011;4266;48.816;9.154;2023-11-19T05:33:06;0.90;;;0.90;;
8458;SDS011;4266;48.816;9.154;2023-11-19T05:35:32;0.90;;;0.90;;
8458;SDS011;4266;48.816;9.154;2023-11-19T05:37:57;0.90;;;0.90;;
8458;SDS011;4266;48.816;9.154;2023-11-19T05:40:23;0.77;;;0.77;;
8458;SDS011;4266;48.816;9.154;2023-11-19T05:42:49;0.90;;;0.90;;
8458;SDS011;4266;48.816;9.154;2023-11-19T05:45:15;0.80;;;0.80;;
8458;SDS011;4266;48.816;9.154;2023-11-19T05:47:41;0.90;;;0.90;;
8458;SDS011;4266;48.816;9.154;2023-11-19T05:50:07;0.90;;;0.90;;
8458;SDS011;4266;48.816;9.154;2023-11-19T05:52:34;1.20;;;1.10;;
8458;SDS011;4266;48.816;9.154;2023-11-19T05:55:00;0.90;;;0.90;;
8458;SDS011;4266;48.816;9.154;2023-11-19T05:57:26;0.97;;;0.97;;
8458;SDS011;4266;48.816;9.154;2023-11-19T05:59:51;1.03;;;1.00;;
8458;SDS011;4266;48.816;9.154;2023-11-19T06:02:17;1.07;;;1.07;;
8458;SDS011;4266;48.816;9.154;2023-11-19T06:04:43;0.90;;;0.90;;
8458;SDS011;4266;48.816;9.154;2023-11-19T06:07:08;1.00;;;1.00;;
8458;SDS011;4266;48.816;9.154;2023-11-19T06:09:34;0.83;;;0.83;;
8458;SDS011;4266;48.816;9.154;2023-11-19T06:12:00;1.30;;;1.00;;
8458;SDS011;4266;48.816;9.154;2023-11-19T06:14:26;1.13;;;1.00;;
8458;SDS011;4266;48.816;9.154;2023-11-19T06:16:51;0.90;;;0.90;;
8458;SDS011;4266;48.816;9.154;2023-11-19T06:19:17;0.90;;;0.90;;
8458;SDS011;4266;48.816;9.154;2023-11-19T06:21:43;1.00;;;1.00;;
8458;SDS011;4266;48.816;9.154;2023-11-19T06:24:08;1.23;;;0.93;;
8458;SDS011;4266;48.816;9.154;2023-11-19T06:26:34;2.00;;;1.10;;
8458;SDS011;4266;48.816;9.154;2023-11-19T06:29:00;0.90;;;0.90;;
8458;SDS011;4266;48.816;9.154;2023-11-19T06:31:26;1.20;;;1.10;;
8458;SDS011;4266;48.816;9.154;2023-11-19T06:33:51;3.13;;;1.10;;
8458;SDS011;4266;48.816;9.154;2023-11-19T06:36:17;1.00;;;1.00;;
8458;SDS011;4266;48.816;9.154;2023-11-19T06:38:43;1.20;;;1.10;;
8458;SDS011;4266;48.816;9.154;2023-11-19T06:41:08;1.27;;;1.17;;
8458;SDS011;4266;48.816;9.154;2023-11-19T06:43:36;1.30;;;1.20;;
8458;SDS011;4266;48.816;9.154;2023-11-19T06:46:01;0.93;;;0.93;;
8458;SDS011;4266;48.816;9.154;2023-11-19T06:48:26;1.10;;;1.00;;
8458;SDS011;4266;48.816;9.154;2023-11-19T06:50:59;1.00;;;1.00;;
8458;SDS011;4266;48.816;9.154;2023-11-19T06:53:25;1.33;;;1.10;;
8458;SDS011;4266;48.816;9.154;2023-11-19T06:55:50;1.10;;;1.10;;
8458;SDS011;4266;48.816;9.154;2023-11-19T06:58:16;1.00;;;1.00;;
8458;SDS011;4266;48.816;9.154;2023-11-19T07:00:42;1.20;;;1.13;;
8458;SDS011;4266;48.816;9.154;2023-11-19T07:03:07;1.80;;;1.10;;
8458;SDS011;4266;48.816;9.154;2023-11-19T07:05:35;1.10;;;1.00;;
8458;SDS011;4266;48.816;9.154;2023-11-19T07:08:00;0.90;;;0.90;;
8458;SDS011;4266;48.816;9.154;2023-11-19T07:10:25;2.70;;;1.37;;
8458;SDS011;4266;48.816;9.154;2023-11-19T07:12:51;1.00;;;1.00;;
8458;SDS011;4266;48.816;9.154;2023-11-19T07:15:17;0.90;;;0.90;;
8458;SDS011;4266;48.816;9.154;2023-11-19T07:17:42;0.93;;;0.93;;
8458;SDS011;4266;48.816;9.154;2023-11-19T07:20:09;1.30;;;1.13;;
8458;SDS011;4266;48.816;9.154;2023-11-19T07:22:36;3.13;;;1.00;;
8458;SDS011;4266;48.816;9.154;2023-11-19T07:25:01;1.10;;;1.10;;
8458;SDS011;4266;48.816;9.154;2023-11-19T07:27:28;1.93;;;1.00;;
8458;SDS011;4266;48.816;9.154;2023-11-19T07:29:54;1.33;;;1.00;;
8458;SDS011;4266;48.816;9.154;2023-11-19T07:32:20;0.90;;;0.90;;
8458;SDS011;4266;48.816;9.154;2023-11-19T07:34:45;2.73;;;1.03;;
8458;SDS011;4266;48.816;9.154;2023-11-19T07:37:12;1.27;;;1.17;;
8458;SDS011;4266;48.816;9.154;2023-11-19T07:39:38;2.60;;;1.17;;
8458;SDS011;4266;48.816;9.154;2023-11-19T07:42:04;1.33;;;1.10;;
8458;SDS011;4266;48.816;9.154;2023-11-19T07:44:31;1.00;;;1.00;;
8458;SDS011;4266;48.816;9.154;2023-11-19T07:46:57;1.07;;;1.07;;
8458;SDS011;4266;48.816;9.154;2023-11-19T07:49:22;1.23;;;1.10;;
8458;SDS011;4266;48.816;9.154;2023-11-19T07:51:48;2.33;;;1.10;;
8458;SDS011;4266;48.816;9.154;2023-11-19T07:54:14;2.37;;;1.20;;
8458;SDS011;4266;48.816;9.154;2023-11-19T07:56:39;2.47;;;1.20;;
8458;SDS011;4266;48.816;9.154;2023-11-19T07:59:05;1.00;;;1.00;;
8458;SDS011;4266;48.816;9.154;2023-11-19T08:01:32;1.40;;;1.13;;
8458;SDS011;4266;48.816;9.154;2023-11-19T08:03:57;1.00;;;1.00;;
8458;SDS011;4266;48.816;9.154;2023-11-19T08:06:23;1.07;;;1.07;;
8458;SDS011;4266;48.816;9.154;2023-11-19T08:08:49;0.97;;;0.97;;
8458;SDS011;4266;48.816;9.154;2023-11-19T08:11:15;1.30;;;1.13;;
8458;SDS011;4266;48.816;9.154;2023-11-19T08:13:41;0.90;;;0.90;;
8458;SDS011;4266;48.816;9.154;2023-11-19T08:16:07;1.00;;;1.00;;
8458;SDS011;4266;48.816;9.154;2023-11-19T08:18:34;1.20;;;1.10;;
8458;SDS011;4266;48.816;9.154;2023-11-19T08:21:00;1.20;;;1.10;;
8458;SDS011;4266;48.816;9.154;2023-11-19T08:23:26;2.20;;;1.10;;
8458;SDS011;4266;48.816;9.154;2023-11-19T08:25:52;1.10;;;1.10;;
8458;SDS011;4266;48.816;9.154;2023-11-19T08:28:18;0.90;;;0.90;;
8458;SDS011;4266;48.816;9.154;2023-11-19T08:30:44;1.83;;;1.10;;
8458;SDS011;4266;48.816;9.154;2023-11-19T08:33:10;1.70;;;1.30;;
8458;SDS011;4266;48.816;9.154;2023-11-19T08:35:36;1.10;;;1.10;;
8458;SDS011;4266;48.816;9.154;2023-11-19T08:38:01;1.30;;;1.20;;
8458;SDS011;4266;48.816;9.154;2023-11-19T08:40:27;2.17;;;1.30;;
8458;SDS011;4266;48.816;9.154;2023-11-19T08:42:53;2.20;;;1.40;;
8458;SDS011;4266;48.816;9.154;2023-11-19T08:45:18;0.80;;;0.80;;
8458;SDS011;4266;48.816;9.154;2023-11-19T08:47:44;0.80;;;0.80;;
8458;SDS011;4266;48.816;9.154;2023-11-19T08:50:10;2.35;;;0.70;;
8458;SDS011;4266;48.816;9.154;2023-11-19T08:52:36;2.22;;;1.00;;
8458;SDS011;4266;48.816;9.154;2023-11-19T08:55:01;0.98;;;0.90;;
8458;SDS011;4266;48.816;9.154;2023-11-19T08:57:27;1.00;;;1.00;;
8458;SDS011;4266;48.816;9.154;2023-11-19T08:59:53;2.25;;;0.80;;
8458;SDS011;4266;48.816;9.154;2023-11-19T09:02:18;1.00;;;1.00;;
8458;SDS011;4266;48.816;9.154;2023-11-19T09:04:44;1.30;;;1.30;;
8458;SDS011;4266;48.816;9.154;2023-11-19T09:07:10;1.70;;;1.60;;
8458;SDS011;4266;48.816;9.154;2023-11-19T09:09:35;1.27;;;1.27;;
8458;SDS011;4266;48.816;9.154;2023-11-19T09:12:02;0.90;;;0.90;;
8458;SDS011;4266;48.816;9.154;2023-11-19T09:14:28;2.15;;;1.37;;
8458;SDS011;4266;48.816;9.154;2023-11-19T09:16:54;2.70;;;1.10;;
8458;SDS011;4266;48.816;9.154;2023-11-19T09:19:19;3.00;;;1.05;;
8458;SDS011;4266;48.816;9.154;2023-11-19T09:21:45;1.12;;;0.93;;
8458;SDS011;4266;48.816;9.154;2023-11-19T09:24:11;0.90;;;0.90;;
8458;SDS011;4266;48.816;9.154;2023-11-19T09:26:36;3.42;;;1.10;;
8458;SDS011;4266;48.816;9.154;2023-11-19T09:29:02;0.90;;;0.90;;
8458;SDS011;4266;48.816;9.154;2023-11-19T09:31:28;1.62;;;1.20;;
8458;SDS011;4266;48.816;9.154;2023-11-19T09:33:54;1.00;;;1.00;;
8458;SDS011;4266;48.816;9.154;2023-11-19T09:36:20;1.20;;;1.20;;
8458;SDS011;4266;48.816;9.154;2023-11-19T09:38:46;1.60;;;1.50;;
8458;SDS011;4266;48.816;9.154;2023-11-19T09:41:12;1.75;;;1.40;;
8458;SDS011;4266;48.816;9.154;2023-11-19T09:43:38;3.07;;;1.30;;
8458;SDS011;4266;48.816;9.154;2023-11-19T09:46:05;1.52;;;1.48;;
8458;SDS011;4266;48.816;9.154;2023-11-19T09:48:32;2.28;;;1.80;;
8458;SDS011;4266;48.816;9.154;2023-11-19T09:50:57;1.42;;;1.40;;
8458;SDS011;4266;48.816;9.154;2023-11-19T09:53:23;1.60;;;1.50;;
8458;SDS011;4266;48.816;9.154;2023-11-19T09:55:48;2.08;;;1.20;;
8458;SDS011;4266;48.816;9.154;2023-11-19T09:58:14;1.50;;;1.27;;
8458;SDS011;4266;48.816;9.154;2023-11-19T10:00:40;1.45;;;1.37;;
8458;SDS011;4266;48.816;9.154;2023-11-19T10:03:07;1.48;;;1.33;;
8458;SDS011;4266;48.816;9.154;2023-11-19T10:05:32;5.00;;;1.10;;
8458;SDS011;4266;48.816;9.154;2023-11-19T10:07:59;1.45;;;0.90;;
8458;SDS011;4266;48.816;9.154;2023-11-19T10:10:25;2.72;;;1.40;;
8458;SDS011;4266;48.816;9.154;2023-11-19T10:12:52;1.70;;;1.50;;
8458;SDS011;4266;48.816;9.154;2023-11-19T10:15:21;2.97;;;1.30;;
8458;SDS011;4266;48.816;9.154;2023-11-19T10:17:46;4.00;;;2.05;;
8458;SDS011;4266;48.816;9.154;2023-11-19T10:20:12;1.85;;;1.50;;
8458;SDS011;4266;48.816;9.154;2023-11-19T10:22:37;1.98;;;1.27;;
8458;SDS011;4266;48.816;9.154;2023-11-19T10:25:04;1.20;;;1.10;;
8458;SDS011;4266;48.816;9.154;2023-11-19T10:27:31;1.77;;;1.17;;
8458;SDS011;4266;48.816;9.154;2023-11-19T10:29:59;2.47;;;1.00;;
8458;SDS011;4266;48.816;9.154;2023-11-19T10:32:23;1.30;;;1.20;;
8458;SDS011;4266;48.816;9.154;2023-11-19T10:34:49;2.12;;;1.33;;
8458;SDS011;4266;48.816;9.154;2023-11-19T10:37:27;3.40;;;1.27;;
8458;SDS011;4266;48.816;9.154;2023-11-19T10:42:17;1.40;;;1.30;;
8458;SDS011;4266;48.816;9.154;2023-11-19T10:44:43;1.27;;;1.17;;
8458;SDS011;4266;48.816;9.154;2023-11-19T10:47:09;3.35;;;1.08;;
8458;SDS011;4266;48.816;9.154;2023-11-19T10:49:36;1.42;;;1.12;;
8458;SDS011;4266;48.816;9.154;2023-11-19T10:52:01;1.40;;;1.30;;
8458;SDS011;4266;48.816;9.154;2023-11-19T10:54:28;1.77;;;1.67;;
8458;SDS011;4266;48.816;9.154;2023-11-19T10:56:55;1.87;;;1.75;;
8458;SDS011;4266;48.816;9.154;2023-11-19T10:59:20;1.45;;;1.35;;
8458;SDS011;4266;48.816;9.154;2023-11-19T11:01:46;2.72;;;1.10;;
8458;SDS011;4266;48.816;9.154;2023-11-19T11:04:13;2.10;;;1.10;;
8458;SDS011;4266;48.816;9.154;2023-11-19T11:06:38;2.85;;;1.27;;
8458;SDS011;4266;48.816;9.154;2023-11-19T11:09:04;2.25;;;1.10;;
8458;SDS011;4266;48.816;9.154;2023-11-19T11:11:30;1.20;;;1.17;;
8458;SDS011;4266;48.816;9.154;2023-11-19T11:13:56;1.70;;;1.20;;
8458;SDS011;4266;48.816;9.154;2023-11-19T11:16:23;3.00;;;1.40;;
8458;SDS011;4266;48.816;9.154;2023-11-19T11:18:48;2.10;;;1.27;;
8458;SDS011;4266;48.816;9.154;2023-11-19T11:21:21;1.05;;;1.02;;
8458;SDS011;4266;48.816;9.154;2023-11-19T11:23:46;1.23;;;1.12;;
8458;SDS011;4266;48.816;9.154;2023-11-19T11:26:14;1.85;;;1.10;;
8458;SDS011;4266;48.816;9.154;2023-11-19T11:28:58;2.37;;;1.35;;
8458;SDS011;4266;48.816;9.154;2023-11-19T11:31:33;2.33;;;1.23;;
8458;SDS011;4266;48.816;9.154;2023-11-19T11:33:58;1.42;;;1.30;;
8458;SDS011;4266;48.816;9.154;2023-11-19T11:36:22;1.40;;;1.30;;
8458;SDS011;4266;48.816;9.154;2023-11-19T11:38:46;1.48;;;1.37;;
8458;SDS011;4266;48.816;9.154;2023-11-19T11:41:14;1.60;;;1.50;;
8458;SDS011;4266;48.816;9.154;2023-11-19T11:43:43;2.30;;;1.30;;
8458;SDS011;4266;48.816;9.154;2023-11-19T11:46:08;1.77;;;1.50;;
8458;SDS011;4266;48.816;9.154;2023-11-19T11:48:35;1.40;;;1.30;;
8458;SDS011;4266;48.816;9.154;2023-11-19T11:51:01;2.37;;;1.52;;
8458;SDS011;4266;48.816;9.154;2023-11-19T11:53:26;3.20;;;1.30;;
8458;SDS011;4266;48.816;9.154;2023-11-19T11:55:53;1.50;;;1.30;;
8458;SDS011;4266;48.816;9.154;2023-11-19T11:58:18;1.95;;;1.37;;
8458;SDS011;4266;48.816;9.154;2023-11-19T12:00:44;4.18;;;1.50;;
8458;SDS011;4266;48.816;9.154;2023-11-19T12:03:10;3.65;;;1.60;;
8458;SDS011;4266;48.816;9.154;2023-11-19T12:05:38;5.75;;;1.85;;
8458;SDS011;4266;48.816;9.154;2023-11-19T12:08:04;2.35;;;1.77;;
8458;SDS011;4266;48.816;9.154;2023-11-19T12:10:30;1.40;;;1.30;;
8458;SDS011;4266;48.816;9.154;2023-11-19T12:12:58;2.17;;;1.17;;
8458;SDS011;4266;48.816;9.154;2023-11-19T12:15:24;1.98;;;1.50;;
8458;SDS011;4266;48.816;9.154;2023-11-19T12:17:50;3.45;;;1.80;;
8458;SDS011;4266;48.816;9.154;2023-11-19T12:20:18;2.35;;;1.60;;
8458;SDS011;4266;48.816;9.154;2023-11-19T12:22:44;1.77;;;1.67;;
8458;SDS011;4266;48.816;9.154;2023-11-19T12:25:10;2.37;;;1.65;;
8458;SDS011;4266;48.816;9.154;2023-11-19T12:27:36;2.55;;;1.60;;
8458;SDS011;4266;48.816;9.154;2023-11-19T12:30:02;3.28;;;1.17;;
8458;SDS011;4266;48.816;9.154;2023-11-19T12:32:36;1.70;;;1.60;;
8458;SDS011;4266;48.816;9.154;2023-11-19T12:34:54;2.00;;;1.80;;
8458;SDS011;4266;48.816;9.154;2023-11-19T12:37:21;1.75;;;1.65;;
8458;SDS011;4266;48.816;9.154;2023-11-19T12:39:47;1.42;;;1.33;;
8458;SDS011;4266;48.816;9.154;2023-11-19T12:42:14;2.87;;;1.40;;
8458;SDS011;4266;48.816;9.154;2023-11-19T12:44:53;2.50;;;1.48;;
8458;SDS011;4266;48.816;9.154;2023-11-19T12:47:06;1.45;;;1.35;;
8458;SDS011;4266;48.816;9.154;2023-11-19T12:49:32;1.40;;;1.30;;
8458;SDS011;4266;48.816;9.154;2023-11-19T12:51:59;1.50;;;1.40;;
8458;SDS011;4266;48.816;9.154;2023-11-19T12:56:57;1.55;;;1.40;;
8458;SDS011;4266;48.816;9.154;2023-11-19T12:59:24;1.33;;;1.23;;
8458;SDS011;4266;48.816;9.154;2023-11-19T13:01:54;1.33;;;1.23;;
8458;SDS011;4266;48.816;9.154;2023-11-19T13:04:20;1.50;;;0.98;;
8458;SDS011;4266;48.816;9.154;2023-11-19T13:06:46;1.60;;;1.50;;
8458;SDS011;4266;48.816;9.154;2023-11-19T13:11:52;1.85;;;1.73;;
8458;SDS011;4266;48.816;9.154;2023-11-19T13:14:17;1.08;;;0.98;;
8458;SDS011;4266;48.816;9.154;2023-11-19T13:16:43;1.20;;;1.10;;
8458;SDS011;4266;48.816;9.154;2023-11-19T13:19:09;1.42;;;1.33;;
8458;SDS011;4266;48.816;9.154;2023-11-19T13:21:34;2.78;;;1.25;;
8458;SDS011;4266;48.816;9.154;2023-11-19T13:24:00;1.90;;;1.67;;
8458;SDS011;4266;48.816;9.154;2023-11-19T13:26:26;1.77;;;1.67;;
8458;SDS011;4266;48.816;9.154;2023-11-19T13:28:52;1.50;;;1.33;;
8458;SDS011;4266;48.816;9.154;2023-11-19T13:31:19;1.37;;;1.17;;
8458;SDS011;4266;48.816;9.154;2023-11-19T13:33:45;2.42;;;1.40;;
8458;SDS011;4266;48.816;9.154;2023-11-19T13:36:11;1.20;;;1.10;;
8458;SDS011;4266;48.816;9.154;2023-11-19T13:38:38;3.47;;;1.33;;
8458;SDS011;4266;48.816;9.154;2023-11-19T13:41:04;1.48;;;1.37;;
8458;SDS011;4266;48.816;9.154;2023-11-19T13:43:30;1.92;;;1.20;;
8458;SDS011;4266;48.816;9.154;2023-11-19T13:45:56;2.45;;;1.50;;
8458;SDS011;4266;48.816;9.154;2023-11-19T13:48:21;3.40;;;1.33;;
8458;SDS011;4266;48.816;9.154;2023-11-19T13:50:47;2.20;;;1.33;;
8458;SDS011;4266;48.816;9.154;2023-11-19T13:53:13;1.65;;;1.55;;
8458;SDS011;4266;48.816;9.154;2023-11-19T13:55:38;3.10;;;1.80;;
8458;SDS011;4266;48.816;9.154;2023-11-19T13:58:04;2.42;;;1.60;;
8458;SDS011;4266;48.816;9.154;2023-11-19T14:00:30;2.12;;;1.80;;
8458;SDS011;4266;48.816;9.154;2023-11-19T14:02:57;1.80;;;1.50;;
8458;SDS011;4266;48.816;9.154;2023-11-19T14:05:23;1.62;;;1.52;;
8458;SDS011;4266;48.816;9.154;2023-11-19T14:07:48;1.42;;;1.33;;
8458;SDS011;4266;48.816;9.154;2023-11-19T14:10:14;1.05;;;1.00;;
8458;SDS011;4266;48.816;9.154;2023-11-19T14:12:40;1.30;;;1.08;;
8458;SDS011;4266;48.816;9.154;2023-11-19T14:15:07;1.35;;;1.00;;
8458;SDS011;4266;48.816;9.154;2023-11-19T14:17:33;1.25;;;1.20;;
8458;SDS011;4266;48.816;9.154;2023-11-19T14:20:00;2.47;;;1.10;;
8458;SDS011;4266;48.816;9.154;2023-11-19T14:22:25;1.35;;;1.25;;
8458;SDS011;4266;48.816;9.154;2023-11-19T14:24:51;2.10;;;1.50;;
8458;SDS011;4266;48.816;9.154;2023-11-19T14:27:17;1.45;;;1.30;;
8458;SDS011;4266;48.816;9.154;2023-11-19T14:29:43;2.62;;;1.30;;
8458;SDS011;4266;48.816;9.154;2023-11-19T14:32:09;2.37;;;1.45;;
8458;SDS011;4266;48.816;9.154;2023-11-19T14:34:35;2.03;;;1.70;;
8458;SDS011;4266;48.816;9.154;2023-11-19T14:37:01;3.50;;;1.80;;
8458;SDS011;4266;48.816;9.154;2023-11-19T14:39:27;3.50;;;1.60;;
8458;SDS011;4266;48.816;9.154;2023-11-19T14:41:53;2.10;;;1.30;;
8458;SDS011;4266;48.816;9.154;2023-11-19T14:44:18;1.80;;;1.47;;
8458;SDS011;4266;48.816;9.154;2023-11-19T14:46:44;2.27;;;1.57;;
8458;SDS011;4266;48.816;9.154;2023-11-19T14:49:10;2.50;;;1.80;;
8458;SDS011;4266;48.816;9.154;2023-11-19T14:51:36;2.90;;;1.53;;
8458;SDS011;4266;48.816;9.154;2023-11-19T14:54:02;2.10;;;1.47;;
8458;SDS011;4266;48.816;9.154;2023-11-19T14:56:28;4.47;;;1.20;;
8458;SDS011;4266;48.816;9.154;2023-11-19T14:58:54;2.13;;;1.60;;
8458;SDS011;4266;48.816;9.154;2023-11-19T15:01:19;1.63;;;1.50;;
8458;SDS011;4266;48.816;9.154;2023-11-19T15:03:46;3.27;;;1.60;;
8458;SDS011;4266;48.816;9.154;2023-11-19T15:06:13;1.90;;;1.60;;
8458;SDS011;4266;48.816;9.154;2023-11-19T15:08:39;1.33;;;1.23;;
8458;SDS011;4266;48.816;9.154;2023-11-19T15:11:05;1.73;;;1.60;;
8458;SDS011;4266;48.816;9.154;2023-11-19T15:13:31;2.70;;;1.63;;
8458;SDS011;4266;48.816;9.154;2023-11-19T15:15:56;2.70;;;1.70;;
8458;SDS011;4266;48.816;9.154;2023-11-19T15:18:23;2.80;;;1.70;;